sensor_id;sensor_type;location;lat;lon;timestamp;pressure;altitude;pressure_sealevel;temperature;humidity
47785;BME280;35233;55.686;37.848;2023-05-18T00:02:20;100333.81;;;19.92;47.90
47785;BME280;35233;55.686;37.848;2023-05-18T00:04:46;100330.44;;;19.88;48.13
47785;BME280;35233;55.686;37.848;2023-05-18T00:07:11;100327.94;;;19.85;48.05
47785;BME280;35233;55.686;37.848;2023-05-18T00:09:38;100329.94;;;19.81;48.09
47785;BME280;35233;55.686;37.848;2023-05-18T00:12:06;100334.09;;;19.87;48.11
47785;BME280;35233;55.686;37.848;2023-05-18T00:14:31;100333.47;;;19.82;48.13
47785;BME280;35233;55.686;37.848;2023-05-18T00:16:57;100340.66;;;19.81;48.03
47785;BME280;35233;55.686;37.848;2023-05-18T00:19:26;100338.06;;;19.80;48.11
47785;BME280;35233;55.686;37.848;2023-05-18T00:21:53;100344.38;;;19.79;47.92
47785;BME280;35233;55.686;37.848;2023-05-18T00:24:20;100341.75;;;19.77;48.12
47785;BME280;35233;55.686;37.848;2023-05-18T00:26:46;100342.63;;;19.78;48.25
47785;BME280;35233;55.686;37.848;2023-05-18T00:29:13;100343.53;;;19.78;48.17
47785;BME280;35233;55.686;37.848;2023-05-18T00:31:38;100332.34;;;19.70;48.23
47785;BME280;35233;55.686;37.848;2023-05-18T00:34:05;100337.59;;;19.72;48.30
47785;BME280;35233;55.686;37.848;2023-05-18T00:36:31;100337.72;;;19.70;48.06
47785;BME280;35233;55.686;37.848;2023-05-18T00:38:57;100344.78;;;19.71;48.22
47785;BME280;35233;55.686;37.848;2023-05-18T00:41:24;100344.00;;;19.69;48.16
47785;BME280;35233;55.686;37.848;2023-05-18T00:43:53;100344.16;;;19.66;48.23
47785;BME280;35233;55.686;37.848;2023-05-18T00:46:18;100332.72;;;19.62;48.15
47785;BME280;35233;55.686;37.848;2023-05-18T00:48:44;100335.97;;;19.69;48.20
47785;BME280;35233;55.686;37.848;2023-05-18T00:51:11;100349.34;;;19.69;48.26
47785;BME280;35233;55.686;37.848;2023-05-18T00:53:37;100341.41;;;19.67;47.92
47785;BME280;35233;55.686;37.848;2023-05-18T00:56:03;100339.13;;;19.60;48.11
47785;BME280;35233;55.686;37.848;2023-05-18T00:58:28;100340.69;;;19.64;48.21
47785;BME280;35233;55.686;37.848;2023-05-18T01:00:55;100344.25;;;19.64;48.32
47785;BME280;35233;55.686;37.848;2023-05-18T01:03:21;100321.66;;;19.53;48.22
47785;BME280;35233;55.686;37.848;2023-05-18T01:05:46;100330.22;;;19.59;47.81
47785;BME280;35233;55.686;37.848;2023-05-18T01:08:20;100324.22;;;19.54;48.07
47785;BME280;35233;55.686;37.848;2023-05-18T01:10:52;100336.44;;;19.60;48.11
47785;BME280;35233;55.686;37.848;2023-05-18T01:13:33;100339.22;;;19.58;48.03
47785;BME280;35233;55.686;37.848;2023-05-18T01:16:00;100332.19;;;19.56;48.22
47785;BME280;35233;55.686;37.848;2023-05-18T01:18:33;100337.56;;;19.56;48.09
47785;BME280;35233;55.686;37.848;2023-05-18T01:21:18;100341.09;;;19.56;48.25
47785;BME280;35233;55.686;37.848;2023-05-18T01:26:51;100339.28;;;19.57;48.13
47785;BME280;35233;55.686;37.848;2023-05-18T01:29:24;100341.97;;;19.57;47.94
47785;BME280;35233;55.686;37.848;2023-05-18T01:31:51;100339.44;;;19.54;48.29
47785;BME280;35233;55.686;37.848;2023-05-18T01:34:17;100343.00;;;19.54;48.00
47785;BME280;35233;55.686;37.848;2023-05-18T01:36:42;100334.19;;;19.52;48.07
47785;BME280;35233;55.686;37.848;2023-05-18T01:39:08;100335.91;;;19.53;48.11
47785;BME280;35233;55.686;37.848;2023-05-18T01:41:36;100334.09;;;19.54;47.99
47785;BME280;35233;55.686;37.848;2023-05-18T01:49:46;100335.91;;;19.53;48.08
47785;BME280;35233;55.686;37.848;2023-05-18T01:53:02;100346.56;;;19.55;48.18
47785;BME280;35233;55.686;37.848;2023-05-18T01:55:09;100343.78;;;19.56;48.06
47785;BME280;35233;55.686;37.848;2023-05-18T01:57:38;100347.31;;;19.57;48.11
47785;BME280;35233;55.686;37.848;2023-05-18T02:00:06;100335.97;;;19.52;47.71
47785;BME280;35233;55.686;37.848;2023-05-18T02:02:33;100350.00;;;19.57;47.95
47785;BME280;35233;55.686;37.848;2023-05-18T02:04:59;100343.00;;;19.54;47.80
47785;BME280;35233;55.686;37.848;2023-05-18T02:07:25;100338.34;;;19.58;47.62
47785;BME280;35233;55.686;37.848;2023-05-18T02:09:50;100348.13;;;19.59;47.62
47785;BME280;35233;55.686;37.848;2023-05-18T02:12:16;100326.84;;;19.56;47.74
47785;BME280;35233;55.686;37.848;2023-05-18T02:14:41;100341.72;;;19.61;47.40
47785;BME280;35233;55.686;37.848;2023-05-18T02:17:06;100347.94;;;19.62;47.45
47785;BME280;35233;55.686;37.848;2023-05-18T02:19:32;100349.66;;;19.63;47.39
47785;BME280;35233;55.686;37.848;2023-05-18T02:22:05;100346.06;;;19.64;47.19
47785;BME280;35233;55.686;37.848;2023-05-18T02:24:33;100344.97;;;19.68;47.42
47785;BME280;35233;55.686;37.848;2023-05-18T02:26:59;100346.91;;;19.64;47.32
47785;BME280;35233;55.686;37.848;2023-05-18T02:29:25;100351.41;;;19.64;47.35
47785;BME280;35233;55.686;37.848;2023-05-18T02:31:51;100345.81;;;19.68;47.29
47785;BME280;35233;55.686;37.848;2023-05-18T02:34:16;100350.25;;;19.70;47.26
47785;BME280;35233;55.686;37.848;2023-05-18T02:36:42;100337.09;;;19.65;47.09
47785;BME280;35233;55.686;37.848;2023-05-18T02:39:08;100357.34;;;19.71;47.15
47785;BME280;35233;55.686;37.848;2023-05-18T02:41:40;100346.00;;;19.65;47.16
47785;BME280;35233;55.686;37.848;2023-05-18T02:44:05;100351.97;;;19.71;47.29
47785;BME280;35233;55.686;37.848;2023-05-18T02:46:31;100348.44;;;19.70;47.29
47785;BME280;35233;55.686;37.848;2023-05-18T02:48:57;100343.31;;;19.65;47.20
47785;BME280;35233;55.686;37.848;2023-05-18T02:51:23;100361.50;;;19.76;47.02
47785;BME280;35233;55.686;37.848;2023-05-18T02:53:50;100347.91;;;19.79;46.70
47785;BME280;35233;55.686;37.848;2023-05-18T02:56:16;100357.50;;;19.83;46.81
47785;BME280;35233;55.686;37.848;2023-05-18T02:58:42;100363.03;;;19.80;46.92
47785;BME280;35233;55.686;37.848;2023-05-18T03:01:09;100354.41;;;19.75;47.01
47785;BME280;35233;55.686;37.848;2023-05-18T03:03:37;100339.59;;;19.68;46.86
47785;BME280;35233;55.686;37.848;2023-05-18T03:06:05;100363.03;;;19.80;47.11
47785;BME280;35233;55.686;37.848;2023-05-18T03:08:32;100358.47;;;19.82;46.83
47785;BME280;35233;55.686;37.848;2023-05-18T03:11:04;100349.81;;;19.77;46.86
47785;BME280;35233;55.686;37.848;2023-05-18T03:13:29;100360.13;;;19.85;46.90
47785;BME280;35233;55.686;37.848;2023-05-18T03:15:55;100355.63;;;19.85;46.89
47785;BME280;35233;55.686;37.848;2023-05-18T03:18:21;100359.25;;;19.84;46.68
47785;BME280;35233;55.686;37.848;2023-05-18T03:20:47;100353.97;;;19.83;46.81
47785;BME280;35233;55.686;37.848;2023-05-18T03:23:16;100360.03;;;19.86;46.86
47785;BME280;35233;55.686;37.848;2023-05-18T03:25:41;100360.19;;;19.83;46.47
47785;BME280;35233;55.686;37.848;2023-05-18T03:28:07;100368.00;;;19.88;46.69
47785;BME280;35233;55.686;37.848;2023-05-18T03:30:32;100364.44;;;19.87;46.74
47785;BME280;35233;55.686;37.848;2023-05-18T03:33:01;100368.69;;;19.92;46.76
47785;BME280;35233;55.686;37.848;2023-05-18T03:35:27;100366.97;;;19.90;46.75
47785;BME280;35233;55.686;37.848;2023-05-18T03:37:53;100358.75;;;19.94;46.63
47785;BME280;35233;55.686;37.848;2023-05-18T03:40:19;100376.22;;;20.01;46.51
47785;BME280;35233;55.686;37.848;2023-05-18T03:42:45;100375.34;;;20.00;46.44
47785;BME280;35233;55.686;37.848;2023-05-18T03:45:11;100368.94;;;20.03;46.17
47785;BME280;35233;55.686;37.848;2023-05-18T03:47:37;100367.56;;;19.96;46.39
47785;BME280;35233;55.686;37.848;2023-05-18T03:50:03;100375.00;;;20.06;46.39
47785;BME280;35233;55.686;37.848;2023-05-18T03:52:31;100367.63;;;20.10;46.30
47785;BME280;35233;55.686;37.848;2023-05-18T03:54:58;100366.59;;;20.12;45.96
47785;BME280;35233;55.686;37.848;2023-05-18T03:57:24;100368.44;;;20.12;46.25
47785;BME280;35233;55.686;37.848;2023-05-18T03:59:51;100377.25;;;20.14;46.05
47785;BME280;35233;55.686;37.848;2023-05-18T04:02:16;100368.44;;;20.12;46.14
47785;BME280;35233;55.686;37.848;2023-05-18T04:04:42;100374.75;;;20.11;45.94
47785;BME280;35233;55.686;37.848;2023-05-18T04:07:13;100375.38;;;20.16;46.33
47785;BME280;35233;55.686;37.848;2023-05-18T04:09:41;100370.31;;;20.10;46.11
47785;BME280;35233;55.686;37.848;2023-05-18T04:12:07;100360.47;;;20.10;46.01
47785;BME280;35233;55.686;37.848;2023-05-18T04:14:33;100371.72;;;20.17;46.12
47785;BME280;35233;55.686;37.848;2023-05-18T04:16:59;100368.94;;;20.19;46.01
47785;BME280;35233;55.686;37.848;2023-05-18T04:19:32;100379.41;;;20.23;46.13
47785;BME280;35233;55.686;37.848;2023-05-18T04:21:58;100365.22;;;20.21;46.15
47785;BME280;35233;55.686;37.848;2023-05-18T04:24:24;100368.50;;;20.26;45.99
47785;BME280;35233;55.686;37.848;2023-05-18T04:26:52;100373.63;;;20.31;45.69
47785;BME280;35233;55.686;37.848;2023-05-18T04:29:18;100374.22;;;20.36;45.65
47785;BME280;35233;55.686;37.848;2023-05-18T04:31:43;100360.28;;;20.29;45.79
47785;BME280;35233;55.686;37.848;2023-05-18T04:34:11;100373.97;;;20.41;45.76
47785;BME280;35233;55.686;37.848;2023-05-18T04:36:38;100378.19;;;20.45;45.40
47785;BME280;35233;55.686;37.848;2023-05-18T04:39:07;100370.13;;;20.45;45.39
47785;BME280;35233;55.686;37.848;2023-05-18T04:41:32;100376.91;;;20.52;45.30
47785;BME280;35233;55.686;37.848;2023-05-18T04:43:59;100375.09;;;20.52;45.28
47785;BME280;35233;55.686;37.848;2023-05-18T04:46:27;100379.19;;;20.60;45.67
47785;BME280;35233;55.686;37.848;2023-05-18T04:48:53;100369.13;;;20.63;45.26
47785;BME280;35233;55.686;37.848;2023-05-18T04:51:22;100374.50;;;21.38;46.63
47785;BME280;35233;55.686;37.848;2023-05-18T04:53:51;100359.53;;;21.62;47.60
47785;BME280;35233;55.686;37.848;2023-05-18T04:56:17;100357.69;;;21.77;47.38
47785;BME280;35233;55.686;37.848;2023-05-18T04:58:47;100366.16;;;21.85;47.14
47785;BME280;35233;55.686;37.848;2023-05-18T05:01:13;100369.22;;;21.93;47.28
47785;BME280;35233;55.686;37.848;2023-05-18T05:03:42;100366.03;;;22.01;46.92
47785;BME280;35233;55.686;37.848;2023-05-18T05:06:09;100359.38;;;22.07;47.19
47785;BME280;35233;55.686;37.848;2023-05-18T05:08:35;100364.47;;;22.11;47.10
47785;BME280;35233;55.686;37.848;2023-05-18T05:11:01;100362.44;;;22.15;47.15
47785;BME280;35233;55.686;37.848;2023-05-18T05:13:26;100356.59;;;22.08;47.10
47785;BME280;35233;55.686;37.848;2023-05-18T05:15:52;100365.22;;;22.13;47.30
47785;BME280;35233;55.686;37.848;2023-05-18T05:18:18;100364.09;;;22.18;47.29
47785;BME280;35233;55.686;37.848;2023-05-18T05:20:43;100365.75;;;22.20;47.21
47785;BME280;35233;55.686;37.848;2023-05-18T05:23:09;100362.94;;;22.22;46.82
47785;BME280;35233;55.686;37.848;2023-05-18T05:25:35;100359.09;;;22.26;46.48
47785;BME280;35233;55.686;37.848;2023-05-18T05:28:00;100346.28;;;22.15;46.44
47785;BME280;35233;55.686;37.848;2023-05-18T05:30:26;100370.50;;;22.29;46.65
47785;BME280;35233;55.686;37.848;2023-05-18T05:32:51;100368.59;;;22.31;46.41
47785;BME280;35233;55.686;37.848;2023-05-18T05:35:16;100366.56;;;22.35;46.31
47785;BME280;35233;55.686;37.848;2023-05-18T05:37:42;100359.34;;;22.35;46.48
47785;BME280;35233;55.686;37.848;2023-05-18T05:40:08;100365.50;;;22.37;46.15
47785;BME280;35233;55.686;37.848;2023-05-18T05:42:34;100362.59;;;22.41;45.87
47785;BME280;35233;55.686;37.848;2023-05-18T05:45:00;100363.34;;;22.43;45.96
47785;BME280;35233;55.686;37.848;2023-05-18T05:47:26;100361.41;;;22.45;45.76
47785;BME280;35233;55.686;37.848;2023-05-18T05:49:51;100357.66;;;22.47;45.96
47785;BME280;35233;55.686;37.848;2023-05-18T05:52:17;100368.03;;;22.53;45.97
47785;BME280;35233;55.686;37.848;2023-05-18T05:54:42;100362.63;;;22.53;45.78
47785;BME280;35233;55.686;37.848;2023-05-18T05:57:07;100357.91;;;22.57;45.75
47785;BME280;35233;55.686;37.848;2023-05-18T05:59:33;100358.78;;;22.57;45.51
47785;BME280;35233;55.686;37.848;2023-05-18T06:01:58;100365.78;;;22.60;45.76
47785;BME280;35233;55.686;37.848;2023-05-18T06:04:24;100359.53;;;22.59;45.68
47785;BME280;35233;55.686;37.848;2023-05-18T06:06:49;100365.69;;;22.62;45.88
47785;BME280;35233;55.686;37.848;2023-05-18T06:09:15;100362.91;;;22.63;45.47
47785;BME280;35233;55.686;37.848;2023-05-18T06:11:41;100361.81;;;22.66;45.62
47785;BME280;35233;55.686;37.848;2023-05-18T06:14:06;100357.09;;;22.69;45.77
47785;BME280;35233;55.686;37.848;2023-05-18T06:16:32;100357.97;;;22.70;45.55
47785;BME280;35233;55.686;37.848;2023-05-18T06:18:57;100353.31;;;22.72;45.63
47785;BME280;35233;55.686;37.848;2023-05-18T06:21:23;100350.31;;;22.76;45.59
47785;BME280;35233;55.686;37.848;2023-05-18T06:23:48;100352.03;;;22.77;45.39
47785;BME280;35233;55.686;37.848;2023-05-18T06:26:13;100368.97;;;22.79;45.40
47785;BME280;35233;55.686;37.848;2023-05-18T06:28:39;100348.19;;;22.81;45.64
47785;BME280;35233;55.686;37.848;2023-05-18T06:31:05;100336.00;;;22.76;45.64
47785;BME280;35233;55.686;37.848;2023-05-18T06:33:30;100351.66;;;22.83;45.14
47785;BME280;35233;55.686;37.848;2023-05-18T06:35:56;100343.56;;;22.83;45.34
47785;BME280;35233;55.686;37.848;2023-05-18T06:38:25;100345.16;;;22.86;45.37
47785;BME280;35233;55.686;37.848;2023-05-18T06:40:50;100345.91;;;22.88;45.52
47785;BME280;35233;55.686;37.848;2023-05-18T06:43:15;100345.81;;;22.90;45.18
47785;BME280;35233;55.686;37.848;2023-05-18T06:45:41;100349.38;;;22.90;45.33
47785;BME280;35233;55.686;37.848;2023-05-18T06:48:06;100352.94;;;22.91;45.37
47785;BME280;35233;55.686;37.848;2023-05-18T06:50:32;100354.56;;;22.93;45.27
47785;BME280;35233;55.686;37.848;2023-05-18T06:52:58;100348.41;;;22.91;45.20
47785;BME280;35233;55.686;37.848;2023-05-18T06:55:23;100345.50;;;22.94;45.24
47785;BME280;35233;55.686;37.848;2023-05-18T06:57:49;100341.00;;;22.95;45.16
47785;BME280;35233;55.686;37.848;2023-05-18T07:00:16;100342.75;;;22.96;45.13
47785;BME280;35233;55.686;37.848;2023-05-18T07:02:41;100339.84;;;22.99;45.29
47785;BME280;35233;55.686;37.848;2023-05-18T07:05:08;100347.78;;;23.00;45.11
47785;BME280;35233;55.686;37.848;2023-05-18T07:07:34;100349.41;;;23.03;44.89
47785;BME280;35233;55.686;37.848;2023-05-18T07:10:01;100345.00;;;23.02;45.00
47785;BME280;35233;55.686;37.848;2023-05-18T07:12:27;100348.34;;;23.05;44.86
47785;BME280;35233;55.686;37.848;2023-05-18T07:14:56;100342.88;;;23.07;44.97
47785;BME280;35233;55.686;37.848;2023-05-18T07:17:21;100341.03;;;23.08;44.81
47785;BME280;35233;55.686;37.848;2023-05-18T07:19:47;100356.88;;;23.12;44.54
47785;BME280;35233;55.686;37.848;2023-05-18T07:22:12;100340.59;;;23.14;44.87
47785;BME280;35233;55.686;37.848;2023-05-18T07:24:38;100345.56;;;23.07;44.96
47785;BME280;35233;55.686;37.848;2023-05-18T07:27:04;100345.66;;;23.18;44.67
47785;BME280;35233;55.686;37.848;2023-05-18T07:29:30;100336.94;;;23.15;44.55
47785;BME280;35233;55.686;37.848;2023-05-18T07:31:55;100342.09;;;23.18;44.60
47785;BME280;35233;55.686;37.848;2023-05-18T07:34:22;100349.88;;;23.22;44.50
47785;BME280;35233;55.686;37.848;2023-05-18T07:36:48;100345.47;;;23.21;44.19
47785;BME280;35233;55.686;37.848;2023-05-18T07:42:03;100352.22;;;23.27;44.25
47785;BME280;35233;55.686;37.848;2023-05-18T07:44:30;100349.03;;;23.22;44.49
47785;BME280;35233;55.686;37.848;2023-05-18T07:47:15;100348.47;;;23.30;44.35
47785;BME280;35233;55.686;37.848;2023-05-18T07:49:41;100343.97;;;23.30;44.21
47785;BME280;35233;55.686;37.848;2023-05-18T07:52:07;100353.97;;;23.28;44.13
47785;BME280;35233;55.686;37.848;2023-05-18T07:54:33;100344.56;;;23.21;43.90
47785;BME280;35233;55.686;37.848;2023-05-18T07:56:58;100345.56;;;23.20;44.30
47785;BME280;35233;55.686;37.848;2023-05-18T07:59:24;100347.06;;;23.24;43.98
47785;BME280;35233;55.686;37.848;2023-05-18T08:01:52;100340.72;;;23.25;44.22
47785;BME280;35233;55.686;37.848;2023-05-18T08:04:36;100354.53;;;23.33;44.25
47785;BME280;35233;55.686;37.848;2023-05-18T08:07:01;100355.38;;;23.34;43.78
47785;BME280;35233;55.686;37.848;2023-05-18T08:09:29;100369.19;;;23.29;44.26
47785;BME280;35233;55.686;37.848;2023-05-18T08:11:56;100350.09;;;23.45;43.97
47785;BME280;35233;55.686;37.848;2023-05-18T08:14:21;100342.22;;;23.42;44.04
47785;BME280;35233;55.686;37.848;2023-05-18T08:16:47;100344.38;;;23.37;44.39
47785;BME280;35233;55.686;37.848;2023-05-18T08:19:13;100343.81;;;23.44;44.34
47785;BME280;35233;55.686;37.848;2023-05-18T08:21:38;100338.13;;;23.36;44.46
47785;BME280;35233;55.686;37.848;2023-05-18T08:24:05;100344.81;;;23.31;44.45
47785;BME280;35233;55.686;37.848;2023-05-18T08:26:31;100336.28;;;23.24;44.75
47785;BME280;35233;55.686;37.848;2023-05-18T08:28:56;100336.19;;;23.25;44.50
47785;BME280;35233;55.686;37.848;2023-05-18T08:31:22;100329.72;;;23.28;44.56
47785;BME280;35233;55.686;37.848;2023-05-18T08:33:47;100326.16;;;23.27;44.46
47785;BME280;35233;55.686;37.848;2023-05-18T08:36:14;100337.03;;;23.26;44.64
47785;BME280;35233;55.686;37.848;2023-05-18T08:38:42;100330.66;;;23.27;44.70
47785;BME280;35233;55.686;37.848;2023-05-18T08:41:18;100297.06;;;23.07;44.39
47785;BME280;35233;55.686;37.848;2023-05-18T08:43:48;100327.78;;;23.30;44.58
47785;BME280;35233;55.686;37.848;2023-05-18T08:46:21;100330.47;;;23.30;44.63
47785;BME280;35233;55.686;37.848;2023-05-18T08:48:51;100330.47;;;23.30;44.63
47785;BME280;35233;55.686;37.848;2023-05-18T08:51:21;100327.78;;;23.30;44.54
47785;BME280;35233;55.686;37.848;2023-05-18T08:53:51;100327.44;;;23.35;44.46
47785;BME280;35233;55.686;37.848;2023-05-18T08:56:18;100330.03;;;23.36;44.53
47785;BME280;35233;55.686;37.848;2023-05-18T08:58:47;100334.56;;;23.36;44.38
47785;BME280;35233;55.686;37.848;2023-05-18T09:01:14;100318.81;;;23.30;44.58
47785;BME280;35233;55.686;37.848;2023-05-18T09:03:41;100302.22;;;23.23;44.54
47785;BME280;35233;55.686;37.848;2023-05-18T09:06:09;100319.69;;;23.30;44.62
47785;BME280;35233;55.686;37.848;2023-05-18T09:08:36;100320.34;;;23.34;44.46
47785;BME280;35233;55.686;37.848;2023-05-18T09:11:03;100311.59;;;23.30;44.51
47785;BME280;35233;55.686;37.848;2023-05-18T09:13:29;100315.25;;;23.29;44.65
47785;BME280;35233;55.686;37.848;2023-05-18T09:15:55;100314.81;;;23.35;44.56
47785;BME280;35233;55.686;37.848;2023-05-18T09:18:20;100299.53;;;23.23;44.55
47785;BME280;35233;55.686;37.848;2023-05-18T09:20:46;100312.34;;;23.32;44.50
47785;BME280;35233;55.686;37.848;2023-05-18T09:23:13;100306.22;;;23.30;44.70
47785;BME280;35233;55.686;37.848;2023-05-18T09:25:44;100313.19;;;23.33;44.51
47785;BME280;35233;55.686;37.848;2023-05-18T09:28:38;100310.63;;;23.31;44.58
47785;BME280;35233;55.686;37.848;2023-05-18T09:31:05;100311.78;;;23.27;44.68
47785;BME280;35233;55.686;37.848;2023-05-18T09:33:36;100307.16;;;23.29;44.94
47785;BME280;35233;55.686;37.848;2023-05-18T09:36:06;100299.84;;;23.31;44.98
47785;BME280;35233;55.686;37.848;2023-05-18T09:38:43;100305.22;;;23.31;44.96
47785;BME280;35233;55.686;37.848;2023-05-18T09:41:11;100306.84;;;23.34;44.82
47785;BME280;35233;55.686;37.848;2023-05-18T09:43:38;100294.44;;;23.31;44.98
47785;BME280;35233;55.686;37.848;2023-05-18T09:46:08;100299.84;;;23.31;44.98
47785;BME280;35233;55.686;37.848;2023-05-18T09:48:35;100290.03;;;23.30;44.90
47785;BME280;35233;55.686;37.848;2023-05-18T09:51:01;100295.44;;;23.30;44.83
47785;BME280;35233;55.686;37.848;2023-05-18T09:53:28;100296.94;;;23.34;44.92
47785;BME280;35233;55.686;37.848;2023-05-18T09:55:54;100285.16;;;23.35;44.78
47785;BME280;35233;55.686;37.848;2023-05-18T09:58:19;100294.09;;;23.36;44.82
47785;BME280;35233;55.686;37.848;2023-05-18T10:00:48;100295.00;;;23.36;44.73
47785;BME280;35233;55.686;37.848;2023-05-18T10:03:23;100297.69;;;23.36;44.81
47785;BME280;35233;55.686;37.848;2023-05-18T10:05:49;100300.38;;;23.36;44.77
47785;BME280;35233;55.686;37.848;2023-05-18T10:08:16;100292.31;;;23.36;44.64
47785;BME280;35233;55.686;37.848;2023-05-18T10:10:46;100292.16;;;23.38;44.63
47785;BME280;35233;55.686;37.848;2023-05-18T10:13:13;100279.31;;;23.41;44.33
47785;BME280;35233;55.686;37.848;2023-05-18T10:15:50;100284.09;;;23.38;44.77
47785;BME280;35233;55.686;37.848;2023-05-18T10:18:28;100281.16;;;23.41;44.70
47785;BME280;35233;55.686;37.848;2023-05-18T10:20:59;100273.28;;;23.38;44.55
47785;BME280;35233;55.686;37.848;2023-05-18T10:23:27;100274.91;;;23.40;44.50
47785;BME280;35233;55.686;37.848;2023-05-18T10:25:54;100275.78;;;23.41;44.57
47785;BME280;35233;55.686;37.848;2023-05-18T10:28:26;100271.38;;;23.40;44.32
47785;BME280;35233;55.686;37.848;2023-05-18T10:30:55;100271.13;;;23.43;44.43
47785;BME280;35233;55.686;37.848;2023-05-18T10:33:23;100274.59;;;23.45;44.26
47785;BME280;35233;55.686;37.848;2023-05-18T10:35:50;100262.19;;;23.42;44.11
47785;BME280;35233;55.686;37.848;2023-05-18T10:38:29;100276.72;;;23.53;44.00
47785;BME280;35233;55.686;37.848;2023-05-18T10:40:57;100259.59;;;23.54;44.18
47785;BME280;35233;55.686;37.848;2023-05-18T10:43:25;100265.72;;;23.56;44.00
47785;BME280;35233;55.686;37.848;2023-05-18T10:45:59;100270.78;;;23.60;43.98
47785;BME280;35233;55.686;37.848;2023-05-18T10:48:26;100251.72;;;23.50;43.77
47785;BME280;35233;55.686;37.848;2023-05-18T10:50:53;100273.34;;;23.62;43.98
47785;BME280;35233;55.686;37.848;2023-05-18T10:53:24;100253.75;;;23.60;43.62
47785;BME280;35233;55.686;37.848;2023-05-18T10:55:52;100259.00;;;23.61;43.78
47785;BME280;35233;55.686;37.848;2023-05-18T10:58:19;100255.38;;;23.62;43.70
47785;BME280;35233;55.686;37.848;2023-05-18T11:00:48;100249.31;;;23.59;43.99
47785;BME280;35233;55.686;37.848;2023-05-18T11:03:16;100253.53;;;23.63;43.89
47785;BME280;35233;55.686;37.848;2023-05-18T11:05:43;100251.91;;;23.60;43.54
47785;BME280;35233;55.686;37.848;2023-05-18T11:08:08;100251.16;;;23.58;43.71
47785;BME280;35233;55.686;37.848;2023-05-18T11:10:42;100245.66;;;23.60;43.69
47785;BME280;35233;55.686;37.848;2023-05-18T11:13:12;100235.09;;;23.57;43.62
47785;BME280;35233;55.686;37.848;2023-05-18T11:18:25;100247.59;;;23.58;43.47
47785;BME280;35233;55.686;37.848;2023-05-18T11:20:58;100246.09;;;23.54;43.50
47785;BME280;35233;55.686;37.848;2023-05-18T11:23:23;100245.97;;;23.55;43.49
47785;BME280;35233;55.686;37.848;2023-05-18T11:25:50;100244.13;;;23.56;43.58
47785;BME280;35233;55.686;37.848;2023-05-18T11:28:20;100239.72;;;23.55;43.54
47785;BME280;35233;55.686;37.848;2023-05-18T11:30:48;100231.88;;;23.52;43.57
47785;BME280;35233;55.686;37.848;2023-05-18T11:36:08;100221.06;;;23.52;43.66
47785;BME280;35233;55.686;37.848;2023-05-18T11:41:38;100220.00;;;23.54;43.54
47785;BME280;35233;55.686;37.848;2023-05-18T11:46:59;100216.31;;;23.55;43.43
47785;BME280;35233;55.686;37.848;2023-05-18T11:49:27;100227.22;;;23.54;43.49
47785;BME280;35233;55.686;37.848;2023-05-18T11:52:04;100217.94;;;23.58;43.44
47785;BME280;35233;55.686;37.848;2023-05-18T11:57:05;100226.16;;;23.56;43.35
47785;BME280;35233;55.686;37.848;2023-05-18T11:59:44;100210.16;;;23.53;43.24
47785;BME280;35233;55.686;37.848;2023-05-18T12:02:11;100215.34;;;23.56;43.34
47785;BME280;35233;55.686;37.848;2023-05-18T12:04:45;100211.78;;;23.56;43.37
47785;BME280;35233;55.686;37.848;2023-05-18T12:07:12;100212.75;;;23.55;43.28
47785;BME280;35233;55.686;37.848;2023-05-18T12:09:41;100220.00;;;23.54;43.57
47785;BME280;35233;55.686;37.848;2023-05-18T12:12:09;100209.06;;;23.56;43.40
47785;BME280;35233;55.686;37.848;2023-05-18T12:14:37;100197.81;;;23.62;43.38
47785;BME280;35233;55.686;37.848;2023-05-18T12:17:04;100205.91;;;23.62;43.49
47785;BME280;35233;55.686;37.848;2023-05-18T12:19:36;100199.91;;;23.58;43.07
47785;BME280;35233;55.686;37.848;2023-05-18T12:22:01;100198.81;;;23.61;43.31
47785;BME280;35233;55.686;37.848;2023-05-18T12:24:29;100207.66;;;23.63;43.26
47785;BME280;35233;55.686;37.848;2023-05-18T12:26:54;100203.13;;;23.63;43.07
47785;BME280;35233;55.686;37.848;2023-05-18T12:29:20;100203.13;;;23.63;43.05
47785;BME280;35233;55.686;37.848;2023-05-18T12:31:47;100201.19;;;23.65;43.19
47785;BME280;35233;55.686;37.848;2023-05-18T12:34:13;100205.50;;;23.68;42.95
47785;BME280;35233;55.686;37.848;2023-05-18T12:36:52;100208.00;;;23.71;43.13
47785;BME280;35233;55.686;37.848;2023-05-18T12:39:21;100202.78;;;23.68;42.95
47785;BME280;35233;55.686;37.848;2023-05-18T12:41:47;100196.22;;;23.72;42.86
47785;BME280;35233;55.686;37.848;2023-05-18T12:44:13;100188.88;;;23.74;42.96
47785;BME280;35233;55.686;37.848;2023-05-18T12:46:40;100186.56;;;23.81;42.95
47785;BME280;35233;55.686;37.848;2023-05-18T12:49:07;100189.16;;;23.82;43.14
47785;BME280;35233;55.686;37.848;2023-05-18T12:51:37;100186.44;;;23.82;42.82
47785;BME280;35233;55.686;37.848;2023-05-18T12:54:04;100185.34;;;23.85;42.63
47785;BME280;35233;55.686;37.848;2023-05-18T12:56:52;100188.59;;;23.90;42.64
47785;BME280;35233;55.686;37.848;2023-05-18T12:59:25;100185.31;;;23.98;42.49
47785;BME280;35233;55.686;37.848;2023-05-18T13:01:52;100189.50;;;24.02;42.30
47785;BME280;35233;55.686;37.848;2023-05-18T13:04:18;100165.19;;;24.02;41.95
47785;BME280;35233;55.686;37.848;2023-05-18T13:06:44;100177.03;;;24.12;42.07
47785;BME280;35233;55.686;37.848;2023-05-18T13:09:12;100179.25;;;24.18;42.07